sensor_id;sensor_type;location;lat;lon;timestamp;P1;durP1;ratioP1;P2;durP2;ratioP2
48241;SDS011;34041;51.812;4.622;2022-12-07T00:00:37;5.13;;;1.97;;
48241;SDS011;34041;51.812;4.622;2022-12-07T00:03:38;4.23;;;2.20;;
48241;SDS011;34041;51.812;4.622;2022-12-07T00:06:40;4.78;;;2.22;;
48241;SDS011;34041;51.812;4.622;2022-12-07T00:09:40;4.22;;;1.95;;
48241;SDS011;34041;51.812;4.622;2022-12-07T00:12:41;3.03;;;1.90;;
48241;SDS011;34041;51.812;4.622;2022-12-07T00:15:41;4.53;;;2.07;;
48241;SDS011;34041;51.812;4.622;2022-12-07T00:18:42;6.32;;;1.92;;
48241;SDS011;34041;51.812;4.622;2022-12-07T00:21:42;2.60;;;1.52;;
48241;SDS011;34041;51.812;4.622;2022-12-07T00:24:43;3.85;;;2.05;;
48241;SDS011;34041;51.812;4.622;2022-12-07T00:27:43;4.63;;;2.33;;
48241;SDS011;34041;51.812;4.622;2022-12-07T00:30:44;4.57;;;2.60;;
48241;SDS011;34041;51.812;4.622;2022-12-07T00:33:44;5.07;;;2.40;;
48241;SDS011;34041;51.812;4.622;2022-12-07T00:36:44;4.93;;;2.05;;
48241;SDS011;34041;51.812;4.622;2022-12-07T00:39:45;3.97;;;1.75;;
48241;SDS011;34041;51.812;4.622;2022-12-07T00:42:45;3.92;;;2.22;;
48241;SDS011;34041;51.812;4.622;2022-12-07T00:45:45;5.40;;;1.60;;
48241;SDS011;34041;51.812;4.622;2022-12-07T00:48:46;3.83;;;2.27;;
48241;SDS011;34041;51.812;4.622;2022-12-07T00:51:49;4.80;;;1.95;;
48241;SDS011;34041;51.812;4.622;2022-12-07T00:54:49;4.47;;;1.80;;
48241;SDS011;34041;51.812;4.622;2022-12-07T00:57:50;3.22;;;1.85;;
48241;SDS011;34041;51.812;4.622;2022-12-07T01:00:50;5.67;;;1.80;;
48241;SDS011;34041;51.812;4.622;2022-12-07T01:03:50;3.63;;;1.70;;
48241;SDS011;34041;51.812;4.622;2022-12-07T01:06:50;2.87;;;1.77;;
48241;SDS011;34041;51.812;4.622;2022-12-07T01:09:50;3.27;;;1.80;;
48241;SDS011;34041;51.812;4.622;2022-12-07T01:12:51;5.80;;;2.20;;
48241;SDS011;34041;51.812;4.622;2022-12-07T01:15:51;5.03;;;1.60;;
48241;SDS011;34041;51.812;4.622;2022-12-07T01:18:52;3.57;;;1.27;;
48241;SDS011;34041;51.812;4.622;2022-12-07T01:21:52;4.07;;;1.60;;
48241;SDS011;34041;51.812;4.622;2022-12-07T01:24:52;2.90;;;1.37;;
48241;SDS011;34041;51.812;4.622;2022-12-07T01:27:53;3.38;;;1.67;;
48241;SDS011;34041;51.812;4.622;2022-12-07T01:30:59;3.27;;;1.33;;
48241;SDS011;34041;51.812;4.622;2022-12-07T01:34:00;3.05;;;1.55;;
48241;SDS011;34041;51.812;4.622;2022-12-07T01:37:00;3.65;;;1.48;;
48241;SDS011;34041;51.812;4.622;2022-12-07T01:40:01;3.03;;;1.50;;
48241;SDS011;34041;51.812;4.622;2022-12-07T01:43:02;2.70;;;1.20;;
48241;SDS011;34041;51.812;4.622;2022-12-07T01:46:03;2.70;;;1.33;;
48241;SDS011;34041;51.812;4.622;2022-12-07T01:49:04;3.20;;;1.30;;
48241;SDS011;34041;51.812;4.622;2022-12-07T01:55:24;1.60;;;1.00;;
48241;SDS011;34041;51.812;4.622;2022-12-07T01:58:25;1.52;;;1.05;;
48241;SDS011;34041;51.812;4.622;2022-12-07T02:01:25;3.95;;;1.20;;
48241;SDS011;34041;51.812;4.622;2022-12-07T02:04:26;2.90;;;1.23;;
48241;SDS011;34041;51.812;4.622;2022-12-07T02:07:26;3.72;;;1.92;;
48241;SDS011;34041;51.812;4.622;2022-12-07T02:10:28;3.53;;;1.38;;
48241;SDS011;34041;51.812;4.622;2022-12-07T02:13:30;3.00;;;1.15;;
48241;SDS011;34041;51.812;4.622;2022-12-07T02:29:17;2.00;;;1.30;;
48241;SDS011;34041;51.812;4.622;2022-12-07T02:35:39;3.92;;;1.50;;
48241;SDS011;34041;51.812;4.622;2022-12-07T02:38:45;3.47;;;1.47;;
48241;SDS011;34041;51.812;4.622;2022-12-07T02:41:48;2.78;;;1.52;;
48241;SDS011;34041;51.812;4.622;2022-12-07T02:44:51;2.28;;;1.20;;
48241;SDS011;34041;51.812;4.622;2022-12-07T02:47:51;4.18;;;1.40;;
48241;SDS011;34041;51.812;4.622;2022-12-07T02:50:54;4.10;;;1.50;;
48241;SDS011;34041;51.812;4.622;2022-12-07T02:53:54;2.58;;;1.20;;
48241;SDS011;34041;51.812;4.622;2022-12-07T03:00:08;5.40;;;1.40;;
48241;SDS011;34041;51.812;4.622;2022-12-07T03:03:09;4.22;;;1.55;;
48241;SDS011;34041;51.812;4.622;2022-12-07T03:06:16;2.75;;;1.10;;
48241;SDS011;34041;51.812;4.622;2022-12-07T03:09:20;2.95;;;1.20;;
48241;SDS011;34041;51.812;4.622;2022-12-07T03:12:25;2.83;;;1.25;;
48241;SDS011;34041;51.812;4.622;2022-12-07T03:15:49;2.97;;;1.17;;
48241;SDS011;34041;51.812;4.622;2022-12-07T03:19:01;3.15;;;1.35;;
48241;SDS011;34041;51.812;4.622;2022-12-07T03:22:11;3.30;;;1.13;;
48241;SDS011;34041;51.812;4.622;2022-12-07T03:25:13;5.78;;;1.48;;
48241;SDS011;34041;51.812;4.622;2022-12-07T03:28:14;2.72;;;1.40;;
48241;SDS011;34041;51.812;4.622;2022-12-07T03:31:17;2.08;;;0.90;;
48241;SDS011;34041;51.812;4.622;2022-12-07T03:34:24;4.80;;;1.55;;
48241;SDS011;34041;51.812;4.622;2022-12-07T03:37:42;2.67;;;1.40;;
48241;SDS011;34041;51.812;4.622;2022-12-07T03:41:01;2.92;;;1.40;;
48241;SDS011;34041;51.812;4.622;2022-12-07T03:44:03;2.67;;;0.90;;
48241;SDS011;34041;51.812;4.622;2022-12-07T03:47:06;3.95;;;1.73;;
48241;SDS011;34041;51.812;4.622;2022-12-07T03:50:50;3.38;;;1.17;;
48241;SDS011;34041;51.812;4.622;2022-12-07T03:53:36;4.38;;;1.08;;
48241;SDS011;34041;51.812;4.622;2022-12-07T03:56:39;3.58;;;1.55;;
48241;SDS011;34041;51.812;4.622;2022-12-07T03:59:40;2.65;;;1.17;;
48241;SDS011;34041;51.812;4.622;2022-12-07T04:02:41;2.38;;;1.25;;
48241;SDS011;34041;51.812;4.622;2022-12-07T04:05:42;3.60;;;1.20;;
48241;SDS011;34041;51.812;4.622;2022-12-07T04:08:43;2.88;;;1.70;;
48241;SDS011;34041;51.812;4.622;2022-12-07T04:11:43;2.20;;;1.40;;
48241;SDS011;34041;51.812;4.622;2022-12-07T04:14:43;2.22;;;1.02;;
48241;SDS011;34041;51.812;4.622;2022-12-07T04:17:43;2.53;;;1.13;;
48241;SDS011;34041;51.812;4.622;2022-12-07T04:20:45;1.93;;;1.17;;
48241;SDS011;34041;51.812;4.622;2022-12-07T04:23:45;3.08;;;1.55;;
48241;SDS011;34041;51.812;4.622;2022-12-07T04:26:45;2.43;;;1.80;;
48241;SDS011;34041;51.812;4.622;2022-12-07T04:29:46;2.65;;;1.25;;
48241;SDS011;34041;51.812;4.622;2022-12-07T04:32:46;4.93;;;1.37;;
48241;SDS011;34041;51.812;4.622;2022-12-07T04:35:46;3.07;;;1.27;;
48241;SDS011;34041;51.812;4.622;2022-12-07T04:38:46;4.80;;;1.53;;
48241;SDS011;34041;51.812;4.622;2022-12-07T04:41:47;2.22;;;0.95;;
48241;SDS011;34041;51.812;4.622;2022-12-07T04:44:47;2.03;;;1.00;;
48241;SDS011;34041;51.812;4.622;2022-12-07T04:47:47;2.72;;;1.13;;
48241;SDS011;34041;51.812;4.622;2022-12-07T04:50:48;3.07;;;1.10;;
48241;SDS011;34041;51.812;4.622;2022-12-07T04:53:49;3.88;;;1.38;;
48241;SDS011;34041;51.812;4.622;2022-12-07T04:56:50;2.15;;;1.13;;
48241;SDS011;34041;51.812;4.622;2022-12-07T04:59:50;2.70;;;1.20;;
48241;SDS011;34041;51.812;4.622;2022-12-07T05:02:50;3.07;;;1.13;;
48241;SDS011;34041;51.812;4.622;2022-12-07T05:05:50;2.37;;;0.87;;
48241;SDS011;34041;51.812;4.622;2022-12-07T05:08:50;1.50;;;0.93;;
48241;SDS011;34041;51.812;4.622;2022-12-07T05:11:51;2.85;;;1.38;;
48241;SDS011;34041;51.812;4.622;2022-12-07T05:14:51;1.70;;;0.77;;
48241;SDS011;34041;51.812;4.622;2022-12-07T05:17:51;4.20;;;1.52;;
48241;SDS011;34041;51.812;4.622;2022-12-07T05:20:52;3.10;;;1.42;;
48241;SDS011;34041;51.812;4.622;2022-12-07T05:23:52;3.83;;;1.80;;
48241;SDS011;34041;51.812;4.622;2022-12-07T05:26:53;4.20;;;1.60;;
48241;SDS011;34041;51.812;4.622;2022-12-07T05:29:53;4.07;;;1.47;;
48241;SDS011;34041;51.812;4.622;2022-12-07T05:32:53;4.90;;;1.40;;
48241;SDS011;34041;51.812;4.622;2022-12-07T05:35:53;2.97;;;1.38;;
48241;SDS011;34041;51.812;4.622;2022-12-07T05:38:54;3.10;;;1.43;;
48241;SDS011;34041;51.812;4.622;2022-12-07T05:41:54;6.00;;;2.03;;
48241;SDS011;34041;51.812;4.622;2022-12-07T05:45:12;10.02;;;2.28;;
48241;SDS011;34041;51.812;4.622;2022-12-07T05:48:12;6.00;;;2.72;;
48241;SDS011;34041;51.812;4.622;2022-12-07T05:51:13;4.70;;;2.97;;
48241;SDS011;34041;51.812;4.622;2022-12-07T05:54:13;4.87;;;2.20;;
48241;SDS011;34041;51.812;4.622;2022-12-07T05:57:13;4.83;;;2.00;;
48241;SDS011;34041;51.812;4.622;2022-12-07T06:00:13;5.15;;;2.28;;
48241;SDS011;34041;51.812;4.622;2022-12-07T06:03:14;6.25;;;2.78;;
48241;SDS011;34041;51.812;4.622;2022-12-07T06:06:14;6.93;;;2.73;;
48241;SDS011;34041;51.812;4.622;2022-12-07T06:09:14;7.75;;;3.28;;
48241;SDS011;34041;51.812;4.622;2022-12-07T06:12:15;4.32;;;2.25;;
48241;SDS011;34041;51.812;4.622;2022-12-07T06:15:35;5.93;;;2.83;;
48241;SDS011;34041;51.812;4.622;2022-12-07T06:18:35;4.45;;;2.30;;
48241;SDS011;34041;51.812;4.622;2022-12-07T06:21:36;9.03;;;3.73;;
48241;SDS011;34041;51.812;4.622;2022-12-07T06:24:36;5.10;;;2.30;;
48241;SDS011;34041;51.812;4.622;2022-12-07T06:27:36;4.60;;;1.90;;
48241;SDS011;34041;51.812;4.622;2022-12-07T06:30:36;5.17;;;2.07;;
48241;SDS011;34041;51.812;4.622;2022-12-07T06:33:36;4.53;;;2.40;;
48241;SDS011;34041;51.812;4.622;2022-12-07T06:36:37;5.53;;;2.60;;
48241;SDS011;34041;51.812;4.622;2022-12-07T06:39:37;4.93;;;2.23;;
48241;SDS011;34041;51.812;4.622;2022-12-07T06:42:38;3.20;;;1.80;;
48241;SDS011;34041;51.812;4.622;2022-12-07T06:45:40;3.55;;;2.00;;
48241;SDS011;34041;51.812;4.622;2022-12-07T06:48:41;3.67;;;1.92;;
48241;SDS011;34041;51.812;4.622;2022-12-07T06:51:41;5.10;;;1.70;;
48241;SDS011;34041;51.812;4.622;2022-12-07T06:54:42;3.42;;;2.22;;
48241;SDS011;34041;51.812;4.622;2022-12-07T06:57:42;3.97;;;2.17;;
48241;SDS011;34041;51.812;4.622;2022-12-07T07:00:43;4.50;;;1.83;;
48241;SDS011;34041;51.812;4.622;2022-12-07T07:03:43;3.13;;;1.73;;
48241;SDS011;34041;51.812;4.622;2022-12-07T07:06:43;3.75;;;1.73;;
48241;SDS011;34041;51.812;4.622;2022-12-07T07:09:44;6.20;;;2.03;;
48241;SDS011;34041;51.812;4.622;2022-12-07T07:12:44;4.00;;;1.87;;
48241;SDS011;34041;51.812;4.622;2022-12-07T07:15:44;3.67;;;1.90;;
48241;SDS011;34041;51.812;4.622;2022-12-07T07:18:44;3.60;;;1.80;;
48241;SDS011;34041;51.812;4.622;2022-12-07T07:21:45;2.63;;;1.58;;
48241;SDS011;34041;51.812;4.622;2022-12-07T07:24:45;4.77;;;2.30;;
48241;SDS011;34041;51.812;4.622;2022-12-07T07:27:45;3.80;;;1.95;;
48241;SDS011;34041;51.812;4.622;2022-12-07T07:30:45;3.17;;;1.63;;
48241;SDS011;34041;51.812;4.622;2022-12-07T07:33:46;4.33;;;2.07;;
48241;SDS011;34041;51.812;4.622;2022-12-07T07:36:46;3.28;;;2.00;;
48241;SDS011;34041;51.812;4.622;2022-12-07T07:39:47;3.27;;;1.83;;
48241;SDS011;34041;51.812;4.622;2022-12-07T07:42:50;3.17;;;1.67;;
48241;SDS011;34041;51.812;4.622;2022-12-07T07:45:50;3.85;;;1.63;;
48241;SDS011;34041;51.812;4.622;2022-12-07T07:48:51;4.27;;;2.57;;
48241;SDS011;34041;51.812;4.622;2022-12-07T07:51:51;4.63;;;2.00;;
48241;SDS011;34041;51.812;4.622;2022-12-07T07:54:51;3.97;;;1.80;;
48241;SDS011;34041;51.812;4.622;2022-12-07T07:57:51;4.90;;;2.03;;
48241;SDS011;34041;51.812;4.622;2022-12-07T08:00:52;2.97;;;1.40;;
48241;SDS011;34041;51.812;4.622;2022-12-07T08:03:53;3.70;;;1.83;;
48241;SDS011;34041;51.812;4.622;2022-12-07T08:06:53;3.33;;;1.37;;
48241;SDS011;34041;51.812;4.622;2022-12-07T08:09:53;3.40;;;1.57;;
48241;SDS011;34041;51.812;4.622;2022-12-07T08:12:53;3.53;;;1.95;;
48241;SDS011;34041;51.812;4.622;2022-12-07T08:16:13;4.60;;;2.05;;
48241;SDS011;34041;51.812;4.622;2022-12-07T08:19:15;4.50;;;1.90;;
48241;SDS011;34041;51.812;4.622;2022-12-07T08:22:15;4.00;;;1.83;;
48241;SDS011;34041;51.812;4.622;2022-12-07T08:25:15;2.80;;;1.63;;
48241;SDS011;34041;51.812;4.622;2022-12-07T08:28:15;3.20;;;1.73;;
48241;SDS011;34041;51.812;4.622;2022-12-07T08:31:16;6.47;;;2.15;;
48241;SDS011;34041;51.812;4.622;2022-12-07T08:34:18;3.50;;;2.00;;
48241;SDS011;34041;51.812;4.622;2022-12-07T08:37:18;4.70;;;1.98;;
48241;SDS011;34041;51.812;4.622;2022-12-07T08:40:18;4.57;;;1.63;;
48241;SDS011;34041;51.812;4.622;2022-12-07T08:43:21;4.13;;;1.60;;
48241;SDS011;34041;51.812;4.622;2022-12-07T08:46:23;3.30;;;1.45;;
48241;SDS011;34041;51.812;4.622;2022-12-07T08:49:32;5.43;;;2.05;;
48241;SDS011;34041;51.812;4.622;2022-12-07T08:52:33;5.32;;;1.75;;
48241;SDS011;34041;51.812;4.622;2022-12-07T08:55:34;4.80;;;2.00;;
48241;SDS011;34041;51.812;4.622;2022-12-07T08:58:35;4.55;;;2.00;;
48241;SDS011;34041;51.812;4.622;2022-12-07T09:01:35;4.13;;;1.98;;
48241;SDS011;34041;51.812;4.622;2022-12-07T09:04:36;6.57;;;1.80;;
48241;SDS011;34041;51.812;4.622;2022-12-07T09:07:36;4.43;;;2.10;;
48241;SDS011;34041;51.812;4.622;2022-12-07T09:10:36;3.60;;;1.60;;
48241;SDS011;34041;51.812;4.622;2022-12-07T09:13:36;3.47;;;1.90;;
48241;SDS011;34041;51.812;4.622;2022-12-07T09:16:37;5.37;;;2.37;;
48241;SDS011;34041;51.812;4.622;2022-12-07T09:19:37;3.23;;;1.80;;
48241;SDS011;34041;51.812;4.622;2022-12-07T09:22:38;3.42;;;1.80;;
48241;SDS011;34041;51.812;4.622;2022-12-07T09:25:38;5.80;;;2.30;;
48241;SDS011;34041;51.812;4.622;2022-12-07T09:28:38;4.65;;;2.47;;
48241;SDS011;34041;51.812;4.622;2022-12-07T09:31:39;4.63;;;2.20;;
48241;SDS011;34041;51.812;4.622;2022-12-07T09:34:40;3.30;;;1.55;;
48241;SDS011;34041;51.812;4.622;2022-12-07T09:37:40;3.35;;;1.83;;
48241;SDS011;34041;51.812;4.622;2022-12-07T09:40:40;2.17;;;1.30;;
48241;SDS011;34041;51.812;4.622;2022-12-07T09:43:43;3.25;;;1.63;;
48241;SDS011;34041;51.812;4.622;2022-12-07T09:46:43;3.15;;;1.90;;
48241;SDS011;34041;51.812;4.622;2022-12-07T09:49:44;7.38;;;2.13;;
48241;SDS011;34041;51.812;4.622;2022-12-07T09:52:45;4.03;;;2.17;;
48241;SDS011;34041;51.812;4.622;2022-12-07T09:55:45;4.85;;;1.90;;
48241;SDS011;34041;51.812;4.622;2022-12-07T09:58:46;4.85;;;1.73;;
48241;SDS011;34041;51.812;4.622;2022-12-07T10:01:47;8.10;;;2.03;;
48241;SDS011;34041;51.812;4.622;2022-12-07T10:04:48;3.20;;;1.67;;
48241;SDS011;34041;51.812;4.622;2022-12-07T10:07:48;5.70;;;2.42;;
48241;SDS011;34041;51.812;4.622;2022-12-07T10:10:53;4.15;;;1.95;;
48241;SDS011;34041;51.812;4.622;2022-12-07T10:13:53;2.55;;;1.48;;
48241;SDS011;34041;51.812;4.622;2022-12-07T10:16:54;3.97;;;2.13;;
48241;SDS011;34041;51.812;4.622;2022-12-07T10:23:15;3.22;;;1.75;;
48241;SDS011;34041;51.812;4.622;2022-12-07T10:26:26;2.85;;;1.80;;
48241;SDS011;34041;51.812;4.622;2022-12-07T10:29:29;4.10;;;1.70;;
48241;SDS011;34041;51.812;4.622;2022-12-07T10:35:30;5.97;;;1.83;;
48241;SDS011;34041;51.812;4.622;2022-12-07T10:38:30;3.08;;;1.65;;
48241;SDS011;34041;51.812;4.622;2022-12-07T10:41:32;4.63;;;1.90;;
48241;SDS011;34041;51.812;4.622;2022-12-07T10:44:33;3.67;;;1.57;;
48241;SDS011;34041;51.812;4.622;2022-12-07T10:56:44;3.30;;;1.30;;
48241;SDS011;34041;51.812;4.622;2022-12-07T10:59:58;6.10;;;2.10;;
48241;SDS011;34041;51.812;4.622;2022-12-07T11:03:17;4.43;;;1.70;;
48241;SDS011;34041;51.812;4.622;2022-12-07T11:18:50;5.35;;;1.77;;
48241;SDS011;34041;51.812;4.622;2022-12-07T11:21:59;4.75;;;1.95;;
48241;SDS011;34041;51.812;4.622;2022-12-07T11:25:10;1.83;;;1.05;;
48241;SDS011;34041;51.812;4.622;2022-12-07T11:28:24;4.20;;;1.60;;
48241;SDS011;34041;51.812;4.622;2022-12-07T11:35:05;3.80;;;1.83;;
48241;SDS011;34041;51.812;4.622;2022-12-07T11:38:11;4.10;;;2.17;;
48241;SDS011;34041;51.812;4.622;2022-12-07T11:41:12;2.95;;;1.83;;
48241;SDS011;34041;51.812;4.622;2022-12-07T11:53:26;6.28;;;1.10;;
48241;SDS011;34041;51.812;4.622;2022-12-07T11:56:27;4.57;;;1.58;;
48241;SDS011;34041;51.812;4.622;2022-12-07T12:02:37;3.40;;;1.20;;
48241;SDS011;34041;51.812;4.622;2022-12-07T12:05:41;4.03;;;1.30;;
48241;SDS011;34041;51.812;4.622;2022-12-07T12:08:43;3.27;;;1.50;;
48241;SDS011;34041;51.812;4.622;2022-12-07T12:21:28;2.80;;;1.50;;
48241;SDS011;34041;51.812;4.622;2022-12-07T12:24:30;2.22;;;1.00;;
48241;SDS011;34041;51.812;4.622;2022-12-07T12:27:36;2.55;;;1.15;;
48241;SDS011;34041;51.812;4.622;2022-12-07T12:30:38;2.17;;;1.10;;
48241;SDS011;34041;51.812;4.622;2022-12-07T12:33:43;1.73;;;0.70;;
48241;SDS011;34041;51.812;4.622;2022-12-07T12:36:45;3.22;;;1.05;;
48241;SDS011;34041;51.812;4.622;2022-12-07T12:40:11;2.63;;;1.00;;
48241;SDS011;34041;51.812;4.622;2022-12-07T12:43:26;2.72;;;1.23;;
48241;SDS011;34041;51.812;4.622;2022-12-07T12:55:43;2.57;;;0.70;;
48241;SDS011;34041;51.812;4.622;2022-12-07T12:58:46;1.15;;;0.60;;
48241;SDS011;34041;51.812;4.622;2022-12-07T13:01:47;1.25;;;0.50;;
48241;SDS011;34041;51.812;4.622;2022-12-07T13:04:52;2.00;;;0.80;;
48241;SDS011;34041;51.812;4.622;2022-12-07T13:10:53;2.45;;;0.70;;
48241;SDS011;34041;51.812;4.622;2022-12-07T13:13:57;2.53;;;0.63;;
48241;SDS011;34041;51.812;4.622;2022-12-07T13:20:46;2.03;;;0.90;;
48241;SDS011;34041;51.812;4.622;2022-12-07T13:26:51;1.75;;;0.90;;
48241;SDS011;34041;51.812;4.622;2022-12-07T13:29:56;2.13;;;0.80;;
48241;SDS011;34041;51.812;4.622;2022-12-07T13:32:57;2.17;;;1.20;;
48241;SDS011;34041;51.812;4.622;2022-12-07T13:35:58;2.47;;;0.80;;
48241;SDS011;34041;51.812;4.622;2022-12-07T13:39:01;2.05;;;0.77;;
48241;SDS011;34041;51.812;4.622;2022-12-07T13:42:15;4.40;;;1.02;;
48241;SDS011;34041;51.812;4.622;2022-12-07T13:45:29;1.88;;;0.65;;
48241;SDS011;34041;51.812;4.622;2022-12-07T13:48:48;2.65;;;0.88;;
48241;SDS011;34041;51.812;4.622;2022-12-07T13:51:49;2.42;;;0.90;;
48241;SDS011;34041;51.812;4.622;2022-12-07T13:57:59;2.50;;;0.90;;
48241;SDS011;34041;51.812;4.622;2022-12-07T14:01:00;2.28;;;0.73;;
48241;SDS011;34041;51.812;4.622;2022-12-07T14:07:26;2.72;;;0.98;;
48241;SDS011;34041;51.812;4.622;2022-12-07T14:10:30;2.55;;;1.00;;
48241;SDS011;34041;51.812;4.622;2022-12-07T14:13:35;3.22;;;0.70;;
48241;SDS011;34041;51.812;4.622;2022-12-07T14:16:36;1.85;;;0.93;;
48241;SDS011;34041;51.812;4.622;2022-12-07T14:19:41;2.08;;;0.90;;
48241;SDS011;34041;51.812;4.622;2022-12-07T14:22:41;1.38;;;0.98;;
48241;SDS011;34041;51.812;4.622;2022-12-07T14:25:48;1.50;;;0.80;;
48241;SDS011;34041;51.812;4.622;2022-12-07T14:28:49;2.08;;;0.70;;
48241;SDS011;34041;51.812;4.622;2022-12-07T14:31:49;2.67;;;0.90;;
48241;SDS011;34041;51.812;4.622;2022-12-07T14:34:53;2.17;;;0.80;;
48241;SDS011;34041;51.812;4.622;2022-12-07T14:37:53;2.70;;;1.10;;
48241;SDS011;34041;51.812;4.622;2022-12-07T14:40:53;2.53;;;0.88;;
48241;SDS011;34041;51.812;4.622;2022-12-07T14:43:54;2.38;;;1.00;;
48241;SDS011;34041;51.812;4.622;2022-12-07T14:46:54;1.83;;;0.80;;
48241;SDS011;34041;51.812;4.622;2022-12-07T14:49:54;1.77;;;0.93;;
48241;SDS011;34041;51.812;4.622;2022-12-07T14:52:55;1.97;;;0.80;;
48241;SDS011;34041;51.812;4.622;2022-12-07T14:55:56;2.70;;;0.98;;
48241;SDS011;34041;51.812;4.622;2022-12-07T14:58:56;3.45;;;1.17;;
48241;SDS011;34041;51.812;4.622;2022-12-07T15:01:57;1.63;;;0.77;;
48241;SDS011;34041;51.812;4.622;2022-12-07T15:04:57;1.90;;;0.97;;
48241;SDS011;34041;51.812;4.622;2022-12-07T15:07:57;3.37;;;1.33;;
48241;SDS011;34041;51.812;4.622;2022-12-07T15:10:58;2.03;;;1.20;;
48241;SDS011;34041;51.812;4.622;2022-12-07T15:13:58;4.18;;;1.23;;
48241;SDS011;34041;51.812;4.622;2022-12-07T15:17:09;2.30;;;1.10;;
48241;SDS011;34041;51.812;4.622;2022-12-07T15:20:13;2.95;;;1.10;;
48241;SDS011;34041;51.812;4.622;2022-12-07T15:23:14;2.15;;;1.10;;
48241;SDS011;34041;51.812;4.622;2022-12-07T15:26:15;3.58;;;0.80;;
48241;SDS011;34041;51.812;4.622;2022-12-07T15:29:15;3.88;;;1.75;;
48241;SDS011;34041;51.812;4.622;2022-12-07T15:32:16;3.05;;;1.05;;
48241;SDS011;34041;51.812;4.622;2022-12-07T15:35:17;2.23;;;0.83;;
48241;SDS011;34041;51.812;4.622;2022-12-07T15:38:17;2.45;;;0.95;;
48241;SDS011;34041;51.812;4.622;2022-12-07T15:41:17;1.95;;;0.90;;
48241;SDS011;34041;51.812;4.622;2022-12-07T15:44:17;2.08;;;1.50;;
48241;SDS011;34041;51.812;4.622;2022-12-07T15:47:38;2.22;;;1.10;;
48241;SDS011;34041;51.812;4.622;2022-12-07T15:50:38;2.75;;;1.00;;
48241;SDS011;34041;51.812;4.622;2022-12-07T15:53:39;1.90;;;0.90;;
48241;SDS011;34041;51.812;4.622;2022-12-07T15:56:39;1.87;;;1.00;;
48241;SDS011;34041;51.812;4.622;2022-12-07T15:59:39;2.58;;;0.93;;
48241;SDS011;34041;51.812;4.622;2022-12-07T16:02:39;1.53;;;0.70;;
48241;SDS011;34041;51.812;4.622;2022-12-07T16:05:39;3.88;;;1.13;;
48241;SDS011;34041;51.812;4.622;2022-12-07T16:08:43;1.30;;;0.80;;
48241;SDS011;34041;51.812;4.622;2022-12-07T16:11:43;2.38;;;0.90;;
48241;SDS011;34041;51.812;4.622;2022-12-07T16:14:44;2.27;;;0.90;;
48241;SDS011;34041;51.812;4.622;2022-12-07T16:17:45;1.35;;;0.68;;
48241;SDS011;34041;51.812;4.622;2022-12-07T16:20:47;2.70;;;1.00;;
48241;SDS011;34041;51.812;4.622;2022-12-07T16:23:47;1.80;;;0.98;;
48241;SDS011;34041;51.812;4.622;2022-12-07T16:26:47;1.88;;;0.90;;
48241;SDS011;34041;51.812;4.622;2022-12-07T16:29:48;2.85;;;1.35;;
48241;SDS011;34041;51.812;4.622;2022-12-07T16:32:48;2.78;;;1.00;;
48241;SDS011;34041;51.812;4.622;2022-12-07T16:35:48;2.58;;;1.05;;
48241;SDS011;34041;51.812;4.622;2022-12-07T16:38:48;1.57;;;0.90;;
48241;SDS011;34041;51.812;4.622;2022-12-07T16:41:49;2.73;;;1.30;;
48241;SDS011;34041;51.812;4.622;2022-12-07T16:44:49;2.83;;;1.00;;
48241;SDS011;34041;51.812;4.622;2022-12-07T16:47:49;2.87;;;1.10;;
48241;SDS011;34041;51.812;4.622;2022-12-07T16:50:49;1.98;;;1.02;;
48241;SDS011;34041;51.812;4.622;2022-12-07T16:53:51;1.73;;;1.10;;
48241;SDS011;34041;51.812;4.622;2022-12-07T16:56:53;3.17;;;1.10;;
48241;SDS011;34041;51.812;4.622;2022-12-07T16:59:53;3.05;;;1.30;;
48241;SDS011;34041;51.812;4.622;2022-12-07T17:02:54;1.93;;;0.90;;
48241;SDS011;34041;51.812;4.622;2022-12-07T17:05:55;3.90;;;1.17;;
48241;SDS011;34041;51.812;4.622;2022-12-07T17:08:55;1.80;;;0.90;;
48241;SDS011;34041;51.812;4.622;2022-12-07T17:11:56;3.05;;;1.02;;
48241;SDS011;34041;51.812;4.622;2022-12-07T17:14:56;2.57;;;1.13;;
48241;SDS011;34041;51.812;4.622;2022-12-07T17:18:15;2.60;;;0.95;;
48241;SDS011;34041;51.812;4.622;2022-12-07T17:21:15;2.80;;;1.30;;
48241;SDS011;34041;51.812;4.622;2022-12-07T17:24:15;2.60;;;1.03;;
48241;SDS011;34041;51.812;4.622;2022-12-07T17:27:16;3.20;;;1.38;;
48241;SDS011;34041;51.812;4.622;2022-12-07T17:30:16;5.88;;;1.75;;
48241;SDS011;34041;51.812;4.622;2022-12-07T17:33:16;3.58;;;1.20;;
48241;SDS011;34041;51.812;4.622;2022-12-07T17:36:18;3.53;;;1.30;;
48241;SDS011;34041;51.812;4.622;2022-12-07T17:39:18;4.40;;;1.13;;
48241;SDS011;34041;51.812;4.622;2022-12-07T17:42:19;2.55;;;1.38;;
48241;SDS011;34041;51.812;4.622;2022-12-07T17:45:39;5.72;;;1.35;;
48241;SDS011;34041;51.812;4.622;2022-12-07T17:48:39;2.95;;;1.40;;
48241;SDS011;34041;51.812;4.622;2022-12-07T17:51:39;3.53;;;1.27;;
48241;SDS011;34041;51.812;4.622;2022-12-07T17:54:58;6.88;;;1.98;;
48241;SDS011;34041;51.812;4.622;2022-12-07T17:57:58;2.67;;;1.13;;
48241;SDS011;34041;51.812;4.622;2022-12-07T18:00:59;1.47;;;0.80;;
48241;SDS011;34041;51.812;4.622;2022-12-07T18:03:59;3.20;;;1.10;;
48241;SDS011;34041;51.812;4.622;2022-12-07T18:06:59;4.20;;;1.52;;
48241;SDS011;34041;51.812;4.622;2022-12-07T18:09:59;2.60;;;1.33;;
48241;SDS011;34041;51.812;4.622;2022-12-07T18:13:00;3.83;;;1.30;;
48241;SDS011;34041;51.812;4.622;2022-12-07T18:16:20;3.03;;;1.15;;
48241;SDS011;34041;51.812;4.622;2022-12-07T18:19:21;3.08;;;1.60;;
48241;SDS011;34041;51.812;4.622;2022-12-07T18:22:22;2.97;;;1.60;;
48241;SDS011;34041;51.812;4.622;2022-12-07T18:25:22;5.28;;;2.13;;
48241;SDS011;34041;51.812;4.622;2022-12-07T18:28:22;3.90;;;1.43;;
48241;SDS011;34041;51.812;4.622;2022-12-07T18:31:22;4.07;;;1.50;;
48241;SDS011;34041;51.812;4.622;2022-12-07T18:34:23;5.32;;;1.80;;
48241;SDS011;34041;51.812;4.622;2022-12-07T18:37:23;5.97;;;1.57;;
48241;SDS011;34041;51.812;4.622;2022-12-07T18:40:26;6.57;;;1.70;;
48241;SDS011;34041;51.812;4.622;2022-12-07T18:43:26;2.80;;;1.43;;
48241;SDS011;34041;51.812;4.622;2022-12-07T18:46:27;3.78;;;1.83;;
48241;SDS011;34041;51.812;4.622;2022-12-07T18:49:27;5.00;;;1.53;;
48241;SDS011;34041;51.812;4.622;2022-12-07T18:52:27;4.38;;;1.52;;
48241;SDS011;34041;51.812;4.622;2022-12-07T18:55:27;3.10;;;1.25;;
48241;SDS011;34041;51.812;4.622;2022-12-07T18:58:28;5.50;;;1.52;;
48241;SDS011;34041;51.812;4.622;2022-12-07T19:01:29;3.53;;;1.50;;
48241;SDS011;34041;51.812;4.622;2022-12-07T19:04:30;2.63;;;1.25;;
48241;SDS011;34041;51.812;4.622;2022-12-07T19:07:30;4.85;;;2.38;;
48241;SDS011;34041;51.812;4.622;2022-12-07T19:10:31;3.22;;;1.40;;
48241;SDS011;34041;51.812;4.622;2022-12-07T19:13:31;3.23;;;1.30;;
48241;SDS011;34041;51.812;4.622;2022-12-07T19:16:31;4.73;;;1.50;;
48241;SDS011;34041;51.812;4.622;2022-12-07T19:19:32;6.07;;;2.17;;
48241;SDS011;34041;51.812;4.622;2022-12-07T19:22:34;3.33;;;1.92;;
48241;SDS011;34041;51.812;4.622;2022-12-07T19:25:34;10.05;;;2.33;;
48241;SDS011;34041;51.812;4.622;2022-12-07T19:28:35;5.40;;;1.45;;
48241;SDS011;34041;51.812;4.622;2022-12-07T19:31:35;2.88;;;1.13;;
48241;SDS011;34041;51.812;4.622;2022-12-07T19:34:36;3.85;;;1.25;;
48241;SDS011;34041;51.812;4.622;2022-12-07T19:37:36;3.15;;;1.67;;
48241;SDS011;34041;51.812;4.622;2022-12-07T19:40:37;2.03;;;1.08;;
48241;SDS011;34041;51.812;4.622;2022-12-07T19:43:37;2.50;;;1.20;;
48241;SDS011;34041;51.812;4.622;2022-12-07T19:46:37;8.20;;;1.57;;
48241;SDS011;34041;51.812;4.622;2022-12-07T19:49:37;3.40;;;1.70;;
48241;SDS011;34041;51.812;4.622;2022-12-07T19:52:38;3.20;;;1.50;;
48241;SDS011;34041;51.812;4.622;2022-12-07T19:55:38;3.37;;;1.50;;
48241;SDS011;34041;51.812;4.622;2022-12-07T19:58:39;3.50;;;1.67;;